Portada
METAR-TAF:

METAR-TAF

Aeroports :

Gore Bay, Ontàrio, Canadà

latitud: 45-53N, longitud: 082-34W, altitud: 193 m

Observació

L'informe es va fer fa 39 minuts, a les 02:00 UTC
Vent 10 kt del Sud/Sud-Est
Temperatura 19°C
Humitat 73%
Pressió 1014 hPa
Visibilitat: 14.5 km
Escasses núvols a una alçada de 8000 ft
Núvols disperses a una alçada de 10000 ft

METAR: CYZE 280200Z AUTO 15010KT 9SM FEW080 SCT100 19/14 A2995 RMK SLP143 DENSITY ALT 1100FT

Hora: 22:39 (02:39 UTC)

Pronòstic

L'informe es va fer fa 7 hores i 1 minuts, a les 19:38 UTC
Pronòstic vàlid del 27 a les 20 UTC al 27 a les 22 UTC
Vent 10 kt del Sud
Visibilitat: 10 km
Escasses núvols a una alçada de 6000 ft
Escasses núvols a una alçada de 15000 ft
Núvols disperses a una alçada de 25000 ft

TAF: CYZE 271938Z 2720/2722 18010KT P6SM FEW060 FEW150 SCT250 RMK FCST BASED ON AUTO OBS. NXT FCST WILL BE ISSUED AT 280945Z

Observacions i pronòstics meteorològics de més de 4000 aeroports (METAR i TAF).

Les estacions disponibles són els punts grocs i vermells al mapa.

Posi el ratolí al punt desitjat per veure el nom de l'estació.

Feu clic per veure les observacions i els pronòstics meteorològics.

Per canviar el mapa: feu clic els botons verds amb una creu de color negre per apropar; al botó verd amb un guió per allunyar la imatge; o en les fletxes verdes per a mapes adjacents.


METAR-TAF: